Time;durP1;ratioP1;P1;durP2;ratioP2;P2;SDS_P1;SDS_P2;PMS_P1;PMS_P2;Temp;Humidity;BMP_temperature;BMP_pressure;BME280_temperature;BME280_humidity;BME280_pressure;Samples;Min_cycle;Max_cycle;Signal;HPM_P1;HPM_P2
2021/04/25 00:01:36;;;;;;;2.33;1.27;;;;;;;3.94;66.43;101541.63;3559705;40;20083;-45
2021/04/25 00:04:05;;;;;;;7.18;2.00;;;;;;;3.61;66.63;101538.59;3561213;40;20057;-42
2021/04/25 00:06:32;;;;;;;4.75;1.80;;;;;;;3.55;67.43;101538.19;3558537;40;20046;-44
2021/04/25 00:08:58;;;;;;;5.55;2.00;;;;;;;3.56;67.18;101532.38;3558839;40;20461;-43
2021/04/25 00:11:25;;;;;;;2.97;1.58;;;;;;;3.45;67.02;101534.16;3557837;40;20101;-42
2021/04/25 00:13:51;;;;;;;3.78;1.98;;;;;;;3.31;67.86;101520.56;3559526;40;20097;-43
2021/04/25 00:16:19;;;;;;;3.38;1.88;;;;;;;3.27;68.47;101522.78;3555390;40;20408;-43
2021/04/25 00:18:46;;;;;;;3.33;2.00;;;;;;;3.23;68.70;101523.34;3558579;40;20088;-43
2021/04/25 00:21:12;;;;;;;4.30;1.92;;;;;;;3.28;68.35;101519.47;3557640;40;20061;-45
2021/04/25 00:23:39;;;;;;;3.03;1.88;;;;;;;3.35;68.50;101520.78;3558628;40;20053;-45
2021/04/25 00:26:05;;;;;;;5.13;1.95;;;;;;;3.22;69.03;101516.53;3558460;40;20072;-43
2021/04/25 00:28:32;;;;;;;4.07;2.15;;;;;;;3.14;69.06;101517.66;3557874;40;20102;-43
2021/04/25 00:30:58;;;;;;;4.38;2.20;;;;;;;3.14;69.51;101508.41;3558983;40;20053;-43
2021/04/25 00:33:25;;;;;;;3.55;2.13;;;;;;;3.72;68.52;101506.38;3557398;40;20065;-44
2021/04/25 00:35:51;;;;;;;3.28;2.30;;;;;;;4.06;66.96;101512.00;3559218;40;20061;-46
2021/04/25 00:38:18;;;;;;;3.22;1.90;;;;;;;4.04;66.98;101518.63;3557356;40;20345;-42
2021/04/25 00:40:44;;;;;;;5.50;2.08;;;;;;;4.39;65.18;101520.94;3558725;40;20105;-43
2021/04/25 00:43:11;;;;;;;3.65;1.85;;;;;;;3.74;67.86;101520.91;3557669;40;20065;-43
2021/04/25 00:45:37;;;;;;;5.75;2.25;;;;;;;2.95;70.61;101515.50;3558266;40;20090;-42
2021/04/25 00:48:04;;;;;;;7.47;3.83;;;;;;;2.72;71.92;101508.84;3558210;40;20072;-42
2021/04/25 00:50:31;;;;;;;13.70;6.90;;;;;;;2.67;72.58;101510.16;3557862;40;20147;-43
2021/04/25 00:52:59;;;;;;;31.70;13.85;;;;;;;2.67;73.33;101513.56;3558668;40;20355;-42
2021/04/25 00:55:28;;;;;;;36.90;15.88;;;;;;;2.53;74.07;101510.06;3557642;40;20093;-44
2021/04/25 00:57:56;;;;;;;25.17;10.70;;;;;;;2.41;74.76;101500.75;3562010;40;20061;-42
2021/04/25 01:00:23;;;;;;;12.07;6.60;;;;;;;2.58;74.37;101510.38;3560572;40;20438;-44
2021/04/25 01:02:55;;;;;;;7.38;4.20;;;;;;;2.74;73.05;101505.66;3563809;40;20064;-41
2021/04/25 01:05:23;;;;;;;6.60;3.47;;;;;;;3.42;70.83;101507.75;3565129;40;20534;-41
2021/04/25 01:07:49;;;;;;;10.80;5.13;;;;;;;2.58;73.35;101502.81;3560440;40;20068;-42
2021/04/25 01:10:17;;;;;;;4.10;2.15;;;;;;;2.32;75.28;101493.38;3560758;40;20097;-44
2021/04/25 01:12:45;;;;;;;5.80;2.85;;;;;;;2.40;76.64;101497.31;3560391;40;20449;-41
2021/04/25 01:15:14;;;;;;;4.32;2.00;;;;;;;3.42;72.58;101505.22;3560627;40;20200;-44
2021/04/25 01:17:44;;;;;;;3.50;2.10;;;;;;;3.22;71.67;101501.34;3560633;40;20042;-44
2021/04/25 01:20:13;;;;;;;36.67;14.57;;;;;;;2.67;75.03;101505.09;3558993;40;20073;-44
2021/04/25 01:22:40;;;;;;;40.65;17.15;;;;;;;2.58;76.11;101501.94;3559944;40;20058;-43
2021/04/25 01:25:09;;;;;;;27.85;11.82;;;;;;;2.77;76.20;101502.44;3559658;40;20165;-43
2021/04/25 01:27:36;;;;;;;25.58;9.65;;;;;;;3.37;73.44;101494.78;3561214;40;20082;-42
2021/04/25 01:30:08;;;;;;;56.97;22.33;;;;;;;3.89;70.71;101504.97;3559655;40;20096;-43
2021/04/25 01:32:36;;;;;;;123.28;52.53;;;;;;;3.78;71.32;101502.59;3559479;40;20062;-43
2021/04/25 01:35:03;;;;;;;157.88;67.45;;;;;;;3.28;73.24;101511.88;3559532;40;20054;-43
2021/04/25 01:37:30;;;;;;;70.68;32.63;;;;;;;3.17;72.84;101500.16;3558754;40;20046;-45
2021/04/25 01:39:57;;;;;;;32.45;16.83;;;;;;;3.02;72.70;101495.78;3560086;40;20055;-44
2021/04/25 01:42:23;;;;;;;30.10;16.40;;;;;;;3.47;71.85;101491.22;3558907;40;20086;-43
2021/04/25 01:44:50;;;;;;;32.65;17.80;;;;;;;4.10;69.22;101493.69;3559809;40;20435;-44
2021/04/25 01:47:16;;;;;;;28.30;15.88;;;;;;;4.03;69.35;101491.53;3558544;40;20066;-43
2021/04/25 01:49:43;;;;;;;25.60;13.82;;;;;;;4.22;68.99;101496.16;3559985;40;20130;-42
2021/04/25 01:52:09;;;;;;;22.27;12.13;;;;;;;3.85;70.80;101492.88;3559368;40;20053;-42
2021/04/25 01:54:36;;;;;;;18.00;11.25;;;;;;;3.70;69.97;101491.09;3559411;40;20078;-45
2021/04/25 01:57:03;;;;;;;16.70;10.63;;;;;;;4.17;69.35;101493.31;3559148;40;20082;-44
2021/04/25 01:59:29;;;;;;;16.67;9.68;;;;;;;4.60;67.42;101489.28;3558672;40;20349;-43
2021/04/25 02:01:56;;;;;;;15.50;9.35;;;;;;;4.27;69.02;101492.25;3559960;40;20089;-42
2021/04/25 02:04:24;;;;;;;35.40;14.10;;;;;;;4.46;68.34;101490.09;3558763;40;20049;-43
2021/04/25 02:06:50;;;;;;;18.42;10.60;;;;;;;3.96;69.61;101489.38;3559807;40;20073;-42
2021/04/25 02:09:17;;;;;;;33.05;18.63;;;;;;;3.79;71.18;101490.81;3558515;40;20062;-44
2021/04/25 02:11:44;;;;;;;81.63;31.23;;;;;;;3.77;70.77;101490.72;3559830;40;20072;-42
2021/04/25 02:14:10;;;;;;;50.15;19.92;;;;;;;3.77;70.54;101487.31;3558899;40;20061;-46
2021/04/25 02:16:37;;;;;;;32.22;13.45;;;;;;;3.39;72.41;101493.25;3560054;40;20356;-43
2021/04/25 02:19:03;;;;;;;24.75;10.43;;;;;;;3.53;71.36;101486.56;3559524;40;20057;-43
2021/04/25 02:21:30;;;;;;;20.88;8.40;;;;;;;3.50;72.27;101486.34;3558797;40;20077;-44
2021/04/25 02:23:57;;;;;;;14.93;6.78;;;;;;;3.67;70.64;101478.22;3560310;40;20049;-42
2021/04/25 02:26:24;;;;;;;17.35;9.20;;;;;;;3.84;70.18;101481.88;3559978;40;20347;-44
2021/04/25 02:28:52;;;;;;;15.30;8.43;;;;;;;4.30;68.67;101479.78;3561952;40;20416;-41
2021/04/25 02:31:18;;;;;;;12.07;7.60;;;;;;;4.22;68.90;101479.28;3558328;40;20054;-43
2021/04/25 02:33:45;;;;;;;11.43;5.38;;;;;;;4.21;68.36;101477.53;3559827;40;20080;-43
2021/04/25 02:36:18;;;;;;;9.38;5.47;;;;;;;4.06;69.47;101484.13;3558290;40;20049;-44
2021/04/25 02:38:44;;;;;;;11.05;5.45;;;;;;;4.09;69.56;101480.13;3559903;40;20127;-43
2021/04/25 02:41:11;;;;;;;11.98;7.65;;;;;;;4.26;69.62;101480.34;3559120;40;20061;-43
2021/04/25 02:43:37;;;;;;;21.15;9.68;;;;;;;4.00;71.21;101481.19;3560941;40;20065;-43
2021/04/25 02:46:04;;;;;;;17.10;8.48;;;;;;;3.61;72.72;101476.97;3558788;40;20057;-43
2021/04/25 02:48:30;;;;;;;9.60;5.18;;;;;;;3.51;73.03;101477.97;3558436;40;20181;-43
2021/04/25 02:50:57;;;;;;;12.05;6.05;;;;;;;4.08;70.31;101480.03;3559428;40;20053;-43
2021/04/25 02:53:24;;;;;;;11.80;4.45;;;;;;;3.80;70.90;101482.44;3558319;40;20062;-43
2021/04/25 02:55:50;;;;;;;6.68;3.42;;;;;;;3.84;68.79;101474.28;3559567;40;20084;-42
2021/04/25 02:58:17;;;;;;;8.52;3.40;;;;;;;3.92;69.28;101468.03;3558138;40;20073;-44
2021/04/25 03:00:44;;;;;;;6.07;3.10;;;;;;;3.64;68.93;101472.06;3559395;40;20169;-43
2021/04/25 03:03:11;;;;;;;7.03;3.60;;;;;;;3.55;70.40;101467.28;3558323;40;20136;-44
2021/04/25 03:05:37;;;;;;;9.05;3.42;;;;;;;3.15;71.50;101471.34;3558851;40;20069;-43
2021/04/25 03:08:04;;;;;;;5.03;3.25;;;;;;;3.47;70.44;101471.84;3559164;40;20085;-42
2021/04/25 03:10:31;;;;;;;8.52;3.25;;;;;;;3.08;71.22;101474.22;3558772;40;20099;-43
2021/04/25 03:12:58;;;;;;;5.72;3.13;;;;;;;2.57;73.85;101470.72;3560943;40;20072;-44
2021/04/25 03:15:24;;;;;;;7.25;3.00;;;;;;;2.85;73.49;101475.16;3558524;40;20442;-43
2021/04/25 03:17:51;;;;;;;4.60;2.90;;;;;;;2.34;75.41;101476.69;3559409;40;20057;-42
2021/04/25 03:20:21;;;;;;;9.23;4.55;;;;;;;2.28;76.22;101474.59;3557591;40;20338;-43
2021/04/25 03:22:48;;;;;;;11.43;5.00;;;;;;;2.25;75.91;101471.84;3559649;40;20071;-42
2021/04/25 03:25:15;;;;;;;10.48;3.83;;;;;;;2.36;75.30;101466.66;3558439;40;20379;-43
2021/04/25 03:27:42;;;;;;;9.95;3.47;;;;;;;2.44;74.83;101463.03;3559298;40;20038;-43
2021/04/25 03:30:11;;;;;;;8.00;4.07;;;;;;;2.32;75.47;101462.19;3559268;40;20068;-44
2021/04/25 03:32:37;;;;;;;8.52;3.88;;;;;;;2.19;76.47;101458.78;3560190;40;20062;-44
2021/04/25 03:35:07;;;;;;;9.55;4.25;;;;;;;2.22;76.38;101468.25;3559565;40;20108;-45
2021/04/25 03:37:34;;;;;;;7.93;4.32;;;;;;;2.15;76.81;101466.91;3558820;40;20070;-43
2021/04/25 03:40:00;;;;;;;8.38;4.18;;;;;;;2.38;76.13;101466.00;3560338;40;20092;-44
2021/04/25 03:42:27;;;;;;;7.60;3.45;;;;;;;2.38;76.04;101467.66;3558543;40;20090;-43
2021/04/25 03:44:53;;;;;;;9.95;4.50;;;;;;;2.55;76.09;101474.81;3559698;40;20048;-43
2021/04/25 03:47:20;;;;;;;7.43;4.32;;;;;;;2.51;76.26;101467.75;3557717;40;20063;-44
2021/04/25 03:49:47;;;;;;;6.57;3.45;;;;;;;2.57;75.62;101458.06;3558343;40;20155;-43
2021/04/25 03:52:14;;;;;;;5.80;3.50;;;;;;;2.49;75.90;101464.22;3557880;40;20106;-42
2021/04/25 03:54:41;;;;;;;8.73;3.60;;;;;;;2.94;74.94;101461.50;3558807;40;20084;-43
2021/04/25 03:57:07;;;;;;;6.20;3.35;;;;;;;3.00;75.58;101469.50;3558147;40;20125;-43
2021/04/25 03:59:34;;;;;;;5.32;3.13;;;;;;;3.20;74.72;101478.47;3560299;40;20082;-44
2021/04/25 04:02:01;;;;;;;3.33;2.63;;;;;;;3.32;72.20;101473.34;3559340;40;20089;-43
2021/04/25 04:04:28;;;;;;;4.85;2.75;;;;;;;2.90;74.21;101466.25;3559246;40;20347;-43
2021/04/25 04:06:55;;;;;;;6.65;2.60;;;;;;;2.86;74.52;101472.72;3559338;40;20053;-42
2021/04/25 04:09:21;;;;;;;3.78;2.60;;;;;;;2.84;74.91;101473.41;3557617;40;20052;-45
2021/04/25 04:11:48;;;;;;;4.90;2.45;;;;;;;2.89;76.15;101472.09;3560864;40;20061;-43
2021/04/25 04:14:14;;;;;;;6.60;2.78;;;;;;;2.96;75.79;101466.69;3558130;40;20097;-44
2021/04/25 04:16:41;;;;;;;4.70;2.78;;;;;;;3.09;76.13;101469.25;3560781;40;20057;-43
2021/04/25 04:19:08;;;;;;;5.70;2.80;;;;;;;3.88;72.82;101473.66;3560425;40;20116;-43
2021/04/25 04:21:34;;;;;;;4.65;3.00;;;;;;;3.80;72.40;101472.31;3558744;40;20070;-43
2021/04/25 04:24:01;;;;;;;5.28;2.95;;;;;;;3.64;74.36;101483.06;3558927;40;20057;-43
2021/04/25 04:26:28;;;;;;;5.13;3.35;;;;;;;3.37;75.54;101483.78;3557812;40;20056;-43
2021/04/25 04:28:55;;;;;;;4.53;3.03;;;;;;;3.56;76.92;101489.31;3558868;40;20086;-44
2021/04/25 04:31:21;;;;;;;7.00;3.28;;;;;;;3.73;75.07;101483.69;3558029;40;20085;-43
2021/04/25 04:33:48;;;;;;;5.20;3.17;;;;;;;3.29;78.34;101490.88;3560678;40;20105;-46
2021/04/25 04:36:15;;;;;;;9.60;3.00;;;;;;;3.44;77.96;101488.47;3559786;40;20074;-43
2021/04/25 04:38:42;;;;;;;6.00;3.13;;;;;;;3.67;77.45;101493.41;3560400;40;20057;-43
2021/04/25 04:41:09;;;;;;;6.45;3.70;;;;;;;3.68;77.74;101495.16;3561226;40;20062;-43
2021/04/25 04:43:35;;;;;;;6.05;3.45;;;;;;;3.71;78.25;101492.84;3559926;40;20050;-43
2021/04/25 04:46:02;;;;;;;7.82;3.60;;;;;;;4.15;76.81;101492.31;3559976;40;20457;-43
2021/04/25 04:48:29;;;;;;;7.30;3.95;;;;;;;3.89;77.01;101494.84;3559242;40;20054;-43
2021/04/25 04:50:55;;;;;;;7.97;3.92;;;;;;;3.62;77.95;101491.38;3563377;40;20322;-43
2021/04/25 04:53:22;;;;;;;6.07;3.63;;;;;;;3.65;78.54;101489.94;3559393;40;20038;-43
2021/04/25 04:55:48;;;;;;;5.15;3.50;;;;;;;3.99;77.26;101490.47;3560426;40;20063;-43
2021/04/25 04:58:15;;;;;;;5.97;3.63;;;;;;;3.80;77.35;101493.47;3560100;40;20140;-43
2021/04/25 05:00:42;;;;;;;7.93;4.32;;;;;;;3.97;77.16;101493.66;3562207;40;20033;-44
2021/04/25 05:03:08;;;;;;;11.40;9.25;;;;;;;4.03;76.56;101496.63;3559698;40;20370;-44
2021/04/25 05:05:35;;;;;;;17.25;15.60;;;;;;;4.39;75.52;101500.63;3559853;40;20154;-43
2021/04/25 05:08:01;;;;;;;20.65;13.60;;;;;;;4.11;76.61;101497.09;3560003;40;20065;-42
2021/04/25 05:10:28;;;;;;;17.27;12.57;;;;;;;4.12;76.14;101499.75;3558910;40;20102;-43
2021/04/25 05:12:54;;;;;;;8.68;6.88;;;;;;;4.35;75.05;101506.28;3560490;40;20057;-44
2021/04/25 05:15:21;;;;;;;11.38;6.05;;;;;;;4.39;75.23;101498.09;3558500;40;20404;-44
2021/04/25 05:17:47;;;;;;;7.47;4.88;;;;;;;4.22;76.63;101503.75;3560244;40;20065;-43
2021/04/25 05:20:14;;;;;;;6.68;4.15;;;;;;;4.50;75.92;101501.31;3558899;40;20061;-44
2021/04/25 05:22:41;;;;;;;7.25;4.57;;;;;;;4.63;74.36;101502.97;3559849;40;20054;-44
2021/04/25 05:25:09;;;;;;;9.02;4.75;;;;;;;4.39;74.87;101499.72;3559446;40;20799;-43
2021/04/25 05:27:35;;;;;;;7.78;4.57;;;;;;;5.09;73.01;101504.13;3559132;40;20045;-42
2021/04/25 05:30:04;;;;;;;19.27;8.95;;;;;;;5.31;70.52;101499.53;3559562;40;20439;-43
2021/04/25 05:32:30;;;;;;;22.92;11.10;;;;;;;5.06;70.69;101503.94;3559034;40;20085;-43
2021/04/25 05:34:57;;;;;;;21.65;12.15;;;;;;;5.03;71.60;101502.06;3560021;40;20490;-43
2021/04/25 05:37:24;;;;;;;21.38;10.82;;;;;;;4.94;72.59;101503.16;3558729;40;20078;-43
2021/04/25 05:39:51;;;;;;;11.85;5.43;;;;;;;5.05;70.76;101508.13;3559542;40;20535;-44
2021/04/25 05:42:18;;;;;;;11.02;6.25;;;;;;;5.13;70.31;101505.16;3558518;40;20578;-42
2021/04/25 05:44:45;;;;;;;14.48;7.95;;;;;;;5.48;70.89;101503.09;3560106;40;20057;-43
2021/04/25 05:47:11;;;;;;;14.15;8.48;;;;;;;5.59;69.41;101503.72;3559145;40;20073;-45
2021/04/25 05:49:38;;;;;;;8.68;6.32;;;;;;;5.86;68.59;101507.84;3559578;40;20253;-46
2021/04/25 05:52:05;;;;;;;8.95;5.03;;;;;;;6.07;67.20;101509.91;3559311;40;20081;-45
2021/04/25 05:54:31;;;;;;;8.15;4.95;;;;;;;6.10;65.57;101510.06;3559338;40;20549;-43
2021/04/25 05:56:58;;;;;;;9.98;4.50;;;;;;;6.31;64.72;101510.41;3559858;40;20441;-44
2021/04/25 05:59:24;;;;;;;10.85;4.35;;;;;;;6.53;63.97;101515.03;3559993;40;20461;-43
2021/04/25 06:01:51;;;;;;;6.50;3.60;;;;;;;6.89;62.90;101511.97;3560684;40;20061;-45
2021/04/25 06:04:18;;;;;;;5.55;4.03;;;;;;;6.69;62.04;101509.97;3561082;40;20632;-42
2021/04/25 06:06:45;;;;;;;6.38;4.10;;;;;;;6.97;61.03;101511.47;3560088;40;20041;-44
2021/04/25 06:09:12;;;;;;;5.50;4.28;;;;;;;6.37;61.69;101514.16;3558779;40;20081;-43
2021/04/25 06:11:38;;;;;;;6.85;3.60;;;;;;;7.09;61.48;101514.69;3561654;40;20072;-44
2021/04/25 06:14:05;;;;;;;6.30;4.18;;;;;;;7.25;59.96;101522.31;3559194;40;20078;-44
2021/04/25 06:16:32;;;;;;;6.50;4.18;;;;;;;7.31;58.06;101522.66;3559346;40;20053;-44
2021/04/25 06:18:59;;;;;;;6.43;3.90;;;;;;;6.72;60.46;101520.34;3559528;40;20050;-43
2021/04/25 06:21:26;;;;;;;6.88;3.30;;;;;;;7.16;59.91;101521.81;3558383;40;20113;-42
2021/04/25 06:23:53;;;;;;;6.80;3.40;;;;;;;7.27;60.52;101518.19;3560049;40;20094;-43
2021/04/25 06:26:20;;;;;;;4.65;3.50;;;;;;;7.93;57.18;101519.00;3559621;40;20053;-42
2021/04/25 06:28:46;;;;;;;7.70;4.30;;;;;;;8.14;55.97;101521.72;3562026;40;20045;-48
2021/04/25 06:31:13;;;;;;;5.00;3.70;;;;;;;8.18;56.10;101531.28;3562320;40;20064;-44
2021/04/25 06:33:41;;;;;;;6.47;4.63;;;;;;;8.15;55.86;101526.91;3561251;40;20077;-43
2021/04/25 06:36:07;;;;;;;7.00;4.00;;;;;;;8.48;54.30;101524.25;3562850;40;20427;-43
2021/04/25 06:38:34;;;;;;;8.13;4.15;;;;;;;7.72;55.22;101528.09;3562320;40;20061;-45
2021/04/25 06:41:01;;;;;;;7.65;3.80;;;;;;;8.17;54.85;101527.84;3562614;40;20656;-43
2021/04/25 06:43:27;;;;;;;9.88;4.75;;;;;;;8.63;54.74;101536.84;3562615;40;20068;-43
2021/04/25 06:45:54;;;;;;;5.78;3.40;;;;;;;8.33;54.93;101528.59;3562458;40;20057;-44
2021/04/25 06:48:21;;;;;;;6.80;3.65;;;;;;;8.34;53.92;101541.44;3562305;40;20041;-43
2021/04/25 06:50:49;;;;;;;4.72;2.80;;;;;;;8.60;52.73;101541.84;3561624;40;20033;-48
2021/04/25 06:53:18;;;;;;;9.75;3.38;;;;;;;8.84;52.95;101544.66;3566888;40;20059;-43
2021/04/25 06:55:45;;;;;;;6.70;3.90;;;;;;;8.81;53.12;101545.38;3564376;40;20119;-42
2021/04/25 06:58:12;;;;;;;8.70;4.03;;;;;;;8.80;53.48;101546.19;3558290;40;20065;-43
2021/04/25 07:00:38;;;;;;;6.15;3.10;;;;;;;8.83;51.04;101540.38;3559626;40;20085;-42
2021/04/25 07:03:05;;;;;;;5.00;3.10;;;;;;;8.72;51.09;101555.16;3560250;40;20105;-42
2021/04/25 07:05:32;;;;;;;6.30;3.25;;;;;;;8.86;51.46;101556.69;3558108;40;20064;-43
2021/04/25 07:07:59;;;;;;;5.90;3.17;;;;;;;8.95;51.31;101548.56;3561655;40;20210;-43
2021/04/25 07:10:26;;;;;;;3.97;2.90;;;;;;;9.38;51.68;101559.06;3558547;40;20630;-43
2021/04/25 07:12:54;;;;;;;6.15;3.63;;;;;;;9.87;49.19;101558.63;3559629;40;20061;-43
2021/04/25 07:15:21;;;;;;;10.63;6.00;;;;;;;9.32;50.30;101553.66;3559546;40;20845;-43
2021/04/25 07:17:48;;;;;;;10.55;5.65;;;;;;;9.89;49.49;101551.00;3560389;40;20076;-43
2021/04/25 07:20:16;;;;;;;22.33;9.88;;;;;;;9.83;49.17;101549.06;3559801;40;20060;-44
2021/04/25 07:22:43;;;;;;;8.05;4.25;;;;;;;9.80;49.20;101550.59;3559336;40;20067;-43
2021/04/25 07:25:10;;;;;;;13.48;6.32;;;;;;;9.47;50.25;101550.91;3560186;40;20061;-43
2021/04/25 07:27:37;;;;;;;28.88;13.45;;;;;;;9.65;51.25;101546.59;3558764;40;20046;-43
2021/04/25 07:30:09;;;;;;;8.48;4.55;;;;;;;9.62;49.02;101549.03;3560030;40;20053;-43
2021/04/25 07:32:36;;;;;;;6.82;3.38;;;;;;;9.73;46.61;101548.63;3561889;40;20061;-43
2021/04/25 07:35:04;;;;;;;6.78;3.58;;;;;;;9.65;48.96;101558.50;3558977;40;20061;-43
2021/04/25 07:37:31;;;;;;;6.03;3.20;;;;;;;9.81;49.20;101560.94;3559709;40;20112;-43
2021/04/25 07:39:58;;;;;;;4.68;3.45;;;;;;;9.81;48.60;101557.50;3560781;40;20158;-43
2021/04/25 07:42:25;;;;;;;4.93;3.20;;;;;;;10.03;48.45;101557.59;3557674;40;20404;-43
2021/04/25 07:44:51;;;;;;;8.52;3.85;;;;;;;9.24;49.48;101557.56;3559002;40;20041;-44
2021/04/25 07:47:18;;;;;;;10.90;4.80;;;;;;;9.16;48.35;101561.47;3560594;40;20097;-43
2021/04/25 07:49:44;;;;;;;6.57;3.83;;;;;;;9.51;47.35;101562.16;3557563;40;20144;-42
2021/04/25 07:52:11;;;;;;;7.28;3.35;;;;;;;10.05;47.18;101557.66;3558433;40;20082;-43
2021/04/25 07:54:41;;;;;;;7.03;3.45;;;;;;;10.30;46.93;101557.00;3561148;40;20069;-43
2021/04/25 07:57:09;;;;;;;5.13;3.33;;;;;;;10.18;46.38;101562.47;3584462;23;20356;-42
2021/04/25 07:59:36;;;;;;;6.20;3.20;;;;;;;9.36;47.30;101557.25;3567305;40;20139;-42
2021/04/25 08:02:03;;;;;;;4.47;2.80;;;;;;;9.77;47.90;101565.84;3567783;40;20061;-45
2021/04/25 08:04:30;;;;;;;4.88;3.35;;;;;;;10.44;45.50;101554.19;3566041;40;20548;-43
2021/04/25 08:06:57;;;;;;;6.85;3.63;;;;;;;9.75;45.33;101560.63;3563853;40;20451;-44
2021/04/25 08:09:24;;;;;;;8.48;3.28;;;;;;;9.75;47.90;101554.66;3549873;40;20054;-43
2021/04/25 08:11:51;;;;;;;5.28;3.40;;;;;;;10.37;45.93;101570.13;3555216;40;20087;-43
2021/04/25 08:14:17;;;;;;;4.78;2.97;;;;;;;10.95;43.24;101569.88;3558205;40;20065;-43
2021/04/25 08:16:44;;;;;;;6.22;3.17;;;;;;;10.73;44.71;101574.97;3556729;40;20048;-42
2021/04/25 08:19:11;;;;;;;6.43;3.53;;;;;;;10.42;44.22;101575.44;3555703;40;20049;-42
2021/04/25 08:21:37;;;;;;;3.67;2.50;;;;;;;10.54;43.32;101570.81;3556238;40;20097;-43
2021/04/25 08:24:06;;;;;;;3.78;2.72;;;;;;;9.89;45.29;101572.38;3553551;40;20417;-42
2021/04/25 08:26:33;;;;;;;4.72;2.65;;;;;;;10.85;43.87;101575.41;3559602;40;20462;-42
2021/04/25 08:29:00;;;;;;;3.88;2.50;;;;;;;10.59;43.69;101578.69;3557716;40;20081;-42
2021/04/25 08:31:28;;;;;;;3.45;1.58;;;;;;;10.09;42.81;101574.88;3556774;40;20351;-43
2021/04/25 08:33:55;;;;;;;5.00;2.13;;;;;;;10.79;41.60;101570.06;3556626;40;20334;-43
2021/04/25 08:36:21;;;;;;;3.72;1.88;;;;;;;10.32;42.14;101573.31;3553681;40;20076;-42
2021/04/25 08:38:48;;;;;;;4.13;2.22;;;;;;;10.07;42.46;101577.34;3557005;40;20050;-44
2021/04/25 08:41:17;;;;;;;4.30;2.08;;;;;;;10.97;42.17;101569.91;3553416;40;20098;-44
2021/04/25 08:43:44;;;;;;;4.43;2.30;;;;;;;11.03;41.42;101572.69;3555883;40;20061;-43
2021/04/25 08:46:20;;;;;;;4.05;2.25;;;;;;;10.82;42.00;101574.47;3561326;40;20053;-42
2021/04/25 08:48:51;;;;;;;3.72;2.00;;;;;;;11.58;39.49;101585.00;3558244;40;20050;-43
2021/04/25 08:51:20;;;;;;;4.15;1.65;;;;;;;11.93;38.59;101576.00;3560752;40;20034;-43
2021/04/25 08:53:49;;;;;;;4.00;2.03;;;;;;;12.95;37.58;101580.13;3560116;40;20347;-43
2021/04/25 08:56:18;;;;;;;5.07;1.77;;;;;;;12.68;36.23;101578.47;3561178;40;20098;-44
2021/04/25 08:58:47;;;;;;;4.10;1.45;;;;;;;11.81;38.34;101574.66;3560185;40;20045;-44
2021/04/25 09:01:19;;;;;;;3.58;1.40;;;;;;;12.96;36.65;101577.59;3560560;40;20065;-43
2021/04/25 09:03:47;;;;;;;2.67;1.70;;;;;;;12.40;36.58;101575.84;3559504;40;20053;-45
2021/04/25 09:06:15;;;;;;;2.90;1.02;;;;;;;11.72;35.84;101580.34;3560760;40;20080;-41
2021/04/25 09:08:42;;;;;;;1.83;1.00;;;;;;;12.40;36.37;101580.97;3556413;40;20407;-44
2021/04/25 09:11:22;;;;;;;5.43;1.23;;;;;;;12.37;37.30;101584.31;3555923;40;20344;-41
2021/04/25 09:14:12;;;;;;;1.48;0.90;;;;;;;11.56;41.18;101590.91;3551708;40;20050;-41
2021/04/25 09:16:39;;;;;;;3.47;1.30;;;;;;;11.81;41.55;101592.63;3552951;40;20086;-44
2021/04/25 09:19:06;;;;;;;5.78;1.30;;;;;;;11.27;42.53;101593.25;3552217;40;20061;-45
2021/04/25 09:21:33;;;;;;;3.80;1.30;;;;;;;11.11;44.30;101603.75;3552581;40;20086;-41
2021/04/25 09:24:26;;;;;;;3.53;1.08;;;;;;;11.08;44.67;101608.75;3554559;40;20422;-42
2021/04/25 09:26:55;;;;;;;3.00;1.33;;;;;;;11.56;44.61;101606.28;3554897;40;20175;-44
2021/04/25 09:29:25;;;;;;;2.35;1.50;;;;;;;10.54;46.98;101603.19;3554264;40;20471;-43
2021/04/25 09:31:54;;;;;;;1.90;1.48;;;;;;;11.10;46.04;101608.00;3558018;40;20068;-43
2021/04/25 09:34:29;;;;;;;4.35;1.52;;;;;;;10.75;46.60;101606.63;3554588;40;20140;-43
2021/04/25 09:37:11;;;;;;;2.92;1.48;;;;;;;10.66;47.85;101603.69;3555208;40;20068;-41
2021/04/25 09:39:38;;;;;;;2.17;1.52;;;;;;;10.22;49.20;101605.31;3559242;40;20054;-46
2021/04/25 09:42:07;;;;;;;2.92;1.45;;;;;;;10.79;47.84;101613.63;3554526;40;20061;-46
2021/04/25 09:44:37;;;;;;;2.97;1.67;;;;;;;10.78;48.49;101605.88;3554688;40;20132;-45
2021/04/25 09:47:05;;;;;;;5.05;1.45;;;;;;;10.21;50.66;101613.78;3554442;40;20094;-44
2021/04/25 09:49:44;;;;;;;3.25;1.38;;;;;;;10.77;47.90;101615.28;3554454;40;20058;-43
2021/04/25 09:52:31;;;;;;;1.95;1.50;;;;;;;12.00;45.05;101614.72;3554129;40;20086;-44
2021/04/25 09:55:16;;;;;;;4.15;1.20;;;;;;;12.92;41.39;101616.91;3553429;40;20078;-47
2021/04/25 09:57:45;;;;;;;;;;;;;;;15.21;38.19;101613.53;3556003;40;20096;-45
2021/04/25 10:00:13;;;;;;;3.10;1.80;;;;;;;14.11;38.17;101614.31;3555313;40;19973;-45
2021/04/25 10:03:09;;;;;;;3.97;1.70;;;;;;;14.22;39.31;101602.56;3555772;40;20061;-42
2021/04/25 10:05:57;;;;;;;2.25;2.05;;;;;;;17.39;34.83;101616.44;3554923;40;20132;-45
2021/04/25 10:08:35;;;;;;;2.38;1.77;;;;;;;18.05;32.86;101625.84;3554238;40;20411;-45
2021/04/25 10:11:05;;;;;;;2.83;1.63;;;;;;;16.30;35.38;101626.84;3552470;40;20046;-44
2021/04/25 10:13:36;;;;;;;2.05;1.75;;;;;;;19.13;32.42;101635.34;3551093;40;20057;-43
2021/04/25 10:16:05;;;;;;;5.65;2.15;;;;;;;14.55;36.69;101621.44;3555359;40;20050;-44
2021/04/25 10:18:33;;;;;;;3.50;1.90;;;;;;;12.28;41.15;101624.22;3553759;40;20116;-41
2021/04/25 10:21:01;;;;;;;3.55;1.85;;;;;;;13.92;39.81;101623.28;3553881;40;20084;-44
2021/04/25 10:23:33;;;;;;;4.68;2.00;;;;;;;12.92;41.57;101627.19;3555717;40;20602;-42
2021/04/25 10:26:01;;;;;;;2.80;1.60;;;;;;;12.96;42.85;101631.59;3553217;40;20086;-44
2021/04/25 10:28:41;;;;;;;2.10;1.75;;;;;;;11.86;41.53;101624.50;3552830;40;20065;-42
2021/04/25 10:31:12;;;;;;;2.67;1.60;;;;;;;13.59;38.63;101628.38;3553882;40;20060;-45
2021/04/25 10:34:01;;;;;;;3.65;1.80;;;;;;;14.27;39.17;101610.41;3554308;40;20057;-48
2021/04/25 10:36:55;;;;;;;4.00;1.83;;;;;;;11.66;40.28;101605.78;3553261;40;20050;-43
2021/04/25 10:39:34;;;;;;;2.85;1.90;;;;;;;12.74;38.10;101599.19;3552361;40;20062;-47
2021/04/25 10:42:24;;;;;;;2.92;1.77;;;;;;;12.92;37.92;101592.91;3552830;40;20738;-46
2021/04/25 10:45:09;;;;;;;2.40;1.48;;;;;;;12.99;35.45;101595.72;3554252;40;20085;-44
2021/04/25 10:47:37;;;;;;;5.25;1.52;;;;;;;15.45;33.31;101592.53;3554231;40;20054;-49
2021/04/25 10:50:13;;;;;;;2.80;1.42;;;;;;;16.38;30.83;101596.84;3554110;40;20404;-43
2021/04/25 10:52:40;;;;;;;;;;;;;;;16.93;28.46;101589.09;3558028;40;20056;-45
2021/04/25 10:55:18;;;;;;;4.90;1.20;;;;;;;13.85;30.91;101587.00;3554065;40;19942;-44
2021/04/25 10:57:51;;;;;;;1.65;1.10;;;;;;;14.99;29.94;101595.00;3556197;40;20049;-45
2021/04/25 11:00:44;;;;;;;1.67;0.95;;;;;;;16.67;26.00;101589.53;3555800;40;20054;-47
2021/04/25 11:03:34;;;;;;;1.85;0.88;;;;;;;16.93;24.80;101586.50;3549390;40;20062;-45
2021/04/25 11:06:00;;;;;;;2.90;1.25;;;;;;;15.19;27.71;101584.22;3550162;40;20117;-47
2021/04/25 11:08:30;;;;;;;1.38;1.00;;;;;;;14.49;28.41;101580.94;3553304;40;20109;-45
2021/04/25 11:10:58;;;;;;;1.25;1.00;;;;;;;13.28;31.94;101576.84;3553989;40;20065;-44
2021/04/25 11:13:44;;;;;;;1.85;1.17;;;;;;;13.61;30.57;101576.94;3554039;40;20061;-45
2021/04/25 11:16:13;;;;;;;2.95;1.40;;;;;;;13.52;33.09;101581.81;3553286;40;20049;-45
2021/04/25 11:19:06;;;;;;;2.42;1.00;;;;;;;12.59;32.60;101577.31;3554115;40;20352;-44
2021/04/25 11:21:41;;;;;;;2.58;1.13;;;;;;;12.92;32.61;101575.75;3553408;40;20050;-45
2021/04/25 11:24:07;;;;;;;5.00;1.98;;;;;;;12.16;34.35;101576.78;3554041;40;20057;-43
2021/04/25 11:26:48;;;;;;;2.15;0.88;;;;;;;10.84;35.88;101578.81;3555321;40;20072;-43
2021/04/25 11:29:19;;;;;;;2.65;1.02;;;;;;;10.84;35.75;101571.13;3555646;40;20064;-43
2021/04/25 11:34:24;;;;;;;2.40;1.23;;;;;;;12.36;35.97;101574.88;3557036;40;20037;-44
2021/04/25 11:37:19;;;;;;;2.45;1.05;;;;;;;13.03;33.34;101572.63;3557943;40;20049;-43
2021/04/25 11:39:57;;;;;;;1.50;0.93;;;;;;;13.40;31.95;101572.03;3554066;40;20064;-45